PWSweather.com
Personal Weather Stations
Station Observations
CHKWX
Mesa Panagitsa, ChalkisGR 34100

Mesa PanagitsaChalkisGR 34100

Lat: 38.470143, Lon: 23.598348

Elevation: 30

Station Type: Ambient Weather WS-1400-IP

Latest ConditionsUpdated 4:10:00 PM GMT+02:02 Tuesday, Dec 18, 2018
Currently Today's Max Today's Min Today's Average
Temperature 47.1°F8.4°C 51.6°F10.9°C 46.2°F7.9°C 48.6°F9.2°C
Dew Point 44.3°F6.8°C 48.9°F9.4°C 43.4°F6.3°C 45.6°F7.6°C
Winds 19.6 mph NW31.5 kmh NW 23.0 mph -37.0 kmh - - 11.1 mph 17.9 kmh
Wind Gusts 27.6 mph44.4 kmh 38.0 mph61.2 kmh - -
Humidity 90% 95% 80% 89%
Pressure 29.94 in1013.9 mb 29.97 in1014.9 mb 29.86 in1011.2 mb -
Precipitation - 0.44 in11.2 mm - -
Hour Temp Dew Point Humidity Winds Wind Gusts Pressure Precip Precip Rate Daily Precip Total
04:10 PM 47.1°F8.4°C 44.3°F6.8°C 90% 19.6 mph NW31.5 kmh NW 27.6 mph44.4 kmh 29.94 in1013.9 mb - 0.00 in0.0 mm 0.44 in11.2 mm
04:00 PM 47.1°F8.4°C 44.0°F6.7°C 89% 16.1 mph NW25.9 kmh NW 23.0 mph37.0 kmh 29.94 in1013.9 mb - 0.00 in0.0 mm 0.44 in11.2 mm
03:50 PM 47.1°F8.4°C 43.7°F6.5°C 88% 19.6 mph W31.5 kmh W 25.3 mph40.7 kmh 29.94 in1013.9 mb - 0.00 in0.0 mm 0.44 in11.2 mm
03:40 PM 47.1°F8.4°C 43.7°F6.5°C 88% 20.7 mph NW33.3 kmh NW 29.9 mph48.1 kmh 29.93 in1013.5 mb - 0.00 in0.0 mm 0.44 in11.2 mm
03:30 PM 47.1°F8.4°C 43.4°F6.3°C 87% 21.9 mph WNW35.2 kmh WNW 29.9 mph48.1 kmh 29.94 in1013.9 mb - 0.00 in0.0 mm 0.44 in11.2 mm
03:20 PM 47.1°F8.4°C 43.7°F6.5°C 88% 18.4 mph WNW29.6 kmh WNW 27.6 mph44.4 kmh 29.93 in1013.5 mb - 0.00 in0.0 mm 0.44 in11.2 mm
03:10 PM 47.1°F8.4°C 43.7°F6.5°C 88% 18.4 mph NW29.6 kmh NW 25.3 mph40.7 kmh 29.93 in1013.5 mb - 0.00 in0.0 mm 0.44 in11.2 mm
03:00 PM 46.9°F8.3°C 43.5°F6.4°C 88% 18.4 mph WNW29.6 kmh WNW 27.6 mph44.4 kmh 29.93 in1013.5 mb - 0.00 in0.0 mm 0.44 in11.2 mm
02:50 PM 46.9°F8.3°C 43.5°F6.4°C 88% 19.6 mph WNW31.5 kmh WNW 29.9 mph48.1 kmh 29.93 in1013.5 mb - 0.00 in0.0 mm 0.44 in11.2 mm
02:40 PM 46.8°F8.2°C 43.4°F6.3°C 88% 20.7 mph WNW33.3 kmh WNW 29.9 mph48.1 kmh 29.93 in1013.5 mb - 0.00 in0.0 mm 0.44 in11.2 mm
02:30 PM 46.6°F8.1°C 43.5°F6.4°C 89% 16.1 mph WNW25.9 kmh WNW 20.7 mph33.3 kmh 29.93 in1013.5 mb - 0.00 in0.0 mm 0.44 in11.2 mm
02:20 PM 46.6°F8.1°C 43.8°F6.6°C 90% 23.0 mph NW37.0 kmh NW 35.7 mph57.5 kmh 29.93 in1013.5 mb - 0.00 in0.0 mm 0.44 in11.2 mm
02:10 PM 46.6°F8.1°C 43.8°F6.6°C 90% 16.1 mph W25.9 kmh W 23.0 mph37.0 kmh 29.93 in1013.5 mb - 0.00 in0.0 mm 0.44 in11.2 mm
02:00 PM 46.6°F8.1°C 43.8°F6.6°C 90% 16.1 mph NW25.9 kmh NW 32.2 mph51.8 kmh 29.93 in1013.5 mb - 0.00 in0.0 mm 0.44 in11.2 mm
01:50 PM 46.6°F8.1°C 43.8°F6.6°C 90% 18.4 mph NW29.6 kmh NW 29.9 mph48.1 kmh 29.94 in1013.9 mb - 0.00 in0.0 mm 0.44 in11.2 mm
01:40 PM 46.6°F8.1°C 43.5°F6.4°C 89% 18.4 mph WNW29.6 kmh WNW 32.2 mph51.8 kmh 29.93 in1013.5 mb - 0.00 in0.0 mm 0.44 in11.2 mm
01:30 PM 46.8°F8.2°C 43.7°F6.5°C 89% 17.3 mph WNW27.8 kmh WNW 27.6 mph44.4 kmh 29.94 in1013.9 mb - 0.00 in0.0 mm 0.44 in11.2 mm
01:20 PM 46.8°F8.2°C 43.7°F6.5°C 89% 17.3 mph WNW27.8 kmh WNW 23.0 mph37.0 kmh 29.94 in1013.9 mb - 0.00 in0.0 mm 0.44 in11.2 mm
01:10 PM 46.8°F8.2°C 43.7°F6.5°C 89% 16.1 mph NW25.9 kmh NW 27.6 mph44.4 kmh 29.94 in1013.9 mb - 0.00 in0.0 mm 0.44 in11.2 mm
01:00 PM 46.8°F8.2°C 43.7°F6.5°C 89% 17.3 mph NW27.8 kmh NW 25.3 mph40.7 kmh 29.93 in1013.5 mb - 0.00 in0.0 mm 0.44 in11.2 mm
12:50 PM 46.8°F8.2°C 44.0°F6.7°C 90% 11.5 mph NW18.5 kmh NW 17.3 mph27.8 kmh 29.94 in1013.9 mb - 0.00 in0.0 mm 0.44 in11.2 mm
12:40 PM 46.8°F8.2°C 44.0°F6.7°C 90% 21.9 mph WNW35.2 kmh WNW 27.6 mph44.4 kmh 29.93 in1013.5 mb - 0.00 in0.0 mm 0.44 in11.2 mm
12:30 PM 46.8°F8.2°C 44.0°F6.7°C 90% 18.4 mph WNW29.6 kmh WNW 27.6 mph44.4 kmh 29.94 in1013.9 mb - 0.00 in0.0 mm 0.44 in11.2 mm
12:20 PM 46.8°F8.2°C 44.0°F6.7°C 90% 17.3 mph WNW27.8 kmh WNW 23.0 mph37.0 kmh 29.94 in1013.9 mb - 0.00 in0.0 mm 0.44 in11.2 mm
12:10 PM 46.6°F8.1°C 43.8°F6.6°C 90% 18.4 mph WNW29.6 kmh WNW 29.9 mph48.1 kmh 29.95 in1014.2 mb - 0.00 in0.0 mm 0.44 in11.2 mm
12:00 PM 46.4°F8.0°C 43.9°F6.6°C 91% 13.8 mph NW22.2 kmh NW 17.3 mph27.8 kmh 29.95 in1014.2 mb - 0.00 in0.0 mm 0.44 in11.2 mm
11:50 AM 46.4°F8.0°C 43.9°F6.6°C 91% 19.6 mph NW31.5 kmh NW 29.9 mph48.1 kmh 29.95 in1014.2 mb - 0.01 in0.3 mm 0.44 in11.2 mm
11:40 AM 46.4°F8.0°C 44.2°F6.8°C 92% 21.9 mph WNW35.2 kmh WNW 35.7 mph57.5 kmh 29.95 in1014.2 mb - 0.01 in0.3 mm 0.44 in11.2 mm
11:30 AM 46.2°F7.9°C 44.0°F6.7°C 92% 20.7 mph WNW33.3 kmh WNW 27.6 mph44.4 kmh 29.96 in1014.6 mb - 0.01 in0.3 mm 0.44 in11.2 mm
11:20 AM 46.2°F7.9°C 44.0°F6.7°C 92% 17.3 mph WNW27.8 kmh WNW 25.3 mph40.7 kmh 29.95 in1014.2 mb - 0.01 in0.3 mm 0.44 in11.2 mm
11:10 AM 46.2°F7.9°C 44.3°F6.8°C 93% 12.7 mph NW20.4 kmh NW 17.3 mph27.8 kmh 29.96 in1014.6 mb - 0.01 in0.3 mm 0.44 in11.2 mm
11:00 AM 46.2°F7.9°C 44.3°F6.8°C 93% 18.4 mph NW29.6 kmh NW 25.3 mph40.7 kmh 29.96 in1014.6 mb - 0.01 in0.3 mm 0.44 in11.2 mm
10:50 AM 46.2°F7.9°C 44.0°F6.7°C 92% 16.1 mph NW25.9 kmh NW 25.3 mph40.7 kmh 29.96 in1014.6 mb - 0.00 in0.0 mm 0.43 in10.9 mm
10:40 AM 46.4°F8.0°C 44.2°F6.8°C 92% 18.4 mph WNW29.6 kmh WNW 25.3 mph40.7 kmh 29.95 in1014.2 mb - 0.00 in0.0 mm 0.43 in10.9 mm
10:30 AM 46.4°F8.0°C 44.2°F6.8°C 92% 16.1 mph NW25.9 kmh NW 25.3 mph40.7 kmh 29.95 in1014.2 mb - 0.00 in0.0 mm 0.43 in10.9 mm
10:20 AM 46.4°F8.0°C 44.2°F6.8°C 92% 15.0 mph WNW24.1 kmh WNW 23.0 mph37.0 kmh 29.95 in1014.2 mb - 0.00 in0.0 mm 0.43 in10.9 mm
10:10 AM 46.4°F8.0°C 44.2°F6.8°C 92% 15.0 mph NW24.1 kmh NW 20.7 mph33.3 kmh 29.95 in1014.2 mb - 0.00 in0.0 mm 0.43 in10.9 mm
10:00 AM 46.6°F8.1°C 44.4°F6.9°C 92% 17.3 mph NW27.8 kmh NW 25.3 mph40.7 kmh 29.94 in1013.9 mb - 0.00 in0.0 mm 0.43 in10.9 mm
09:50 AM 46.8°F8.2°C 44.9°F7.2°C 93% 21.9 mph W35.2 kmh W 38.0 mph61.2 kmh 29.94 in1013.9 mb - 0.00 in0.0 mm 0.43 in10.9 mm
09:40 AM 46.9°F8.3°C 45.0°F7.2°C 93% 16.1 mph WNW25.9 kmh WNW 23.0 mph37.0 kmh 29.94 in1013.9 mb - 0.00 in0.0 mm 0.43 in10.9 mm
09:30 AM 46.9°F8.3°C 45.0°F7.2°C 93% 17.3 mph NW27.8 kmh NW 25.3 mph40.7 kmh 29.93 in1013.5 mb - 0.00 in0.0 mm 0.43 in10.9 mm
09:20 AM 47.1°F8.4°C 44.9°F7.2°C 92% 19.6 mph NW31.5 kmh NW 25.3 mph40.7 kmh 29.93 in1013.5 mb - 0.00 in0.0 mm 0.43 in10.9 mm
09:10 AM 47.3°F8.5°C 45.1°F7.3°C 92% 17.3 mph NW27.8 kmh NW 23.0 mph37.0 kmh 29.93 in1013.5 mb - 0.00 in0.0 mm 0.43 in10.9 mm
09:00 AM 47.5°F8.6°C 45.6°F7.6°C 93% 13.8 mph W22.2 kmh W 20.7 mph33.3 kmh 29.93 in1013.5 mb - 0.00 in0.0 mm 0.43 in10.9 mm
08:50 AM 47.8°F8.8°C 45.6°F7.6°C 92% 21.9 mph W35.2 kmh W 29.9 mph48.1 kmh 29.92 in1013.2 mb - 0.00 in0.0 mm 0.43 in10.9 mm
08:40 AM 48.0°F8.9°C 45.8°F7.7°C 92% 13.8 mph WNW22.2 kmh WNW 23.0 mph37.0 kmh 29.92 in1013.2 mb - 0.00 in0.0 mm 0.43 in10.9 mm
08:30 AM 48.4°F9.1°C 46.2°F7.9°C 92% 13.8 mph W22.2 kmh W 23.0 mph37.0 kmh 29.92 in1013.2 mb - 0.00 in0.0 mm 0.43 in10.9 mm
08:20 AM 49.1°F9.5°C 46.8°F8.2°C 92% 21.9 mph W35.2 kmh W 29.9 mph48.1 kmh 29.91 in1012.9 mb - 0.00 in0.0 mm 0.43 in10.9 mm
08:10 AM 50.1°F10.1°C 47.9°F8.8°C 92% 13.8 mph NW22.2 kmh NW 23.0 mph37.0 kmh 29.91 in1012.9 mb - 0.00 in0.0 mm 0.43 in10.9 mm
08:00 AM 50.9°F10.5°C 48.4°F9.1°C 91% 16.1 mph WNW25.9 kmh WNW 27.6 mph44.4 kmh 29.90 in1012.5 mb - 0.00 in0.0 mm 0.43 in10.9 mm
07:50 AM 51.3°F10.7°C 48.2°F9.0°C 89% 8.1 mph NW13.0 kmh NW 12.7 mph20.4 kmh 29.90 in1012.5 mb - 0.00 in0.0 mm 0.43 in10.9 mm
07:40 AM 51.2°F10.7°C 46.5°F8.1°C 84% 9.2 mph N14.8 kmh N 12.7 mph20.4 kmh 29.90 in1012.5 mb - 0.00 in0.0 mm 0.43 in10.9 mm
07:30 AM 50.9°F10.5°C 46.2°F7.9°C 84% Calm Calm -- 29.89 in1012.2 mb - 0.00 in0.0 mm 0.43 in10.9 mm
07:20 AM 50.9°F10.5°C 46.2°F7.9°C 84% Calm Calm 2.3 mph3.7 kmh 29.89 in1012.2 mb - 0.00 in0.0 mm 0.43 in10.9 mm
07:10 AM 51.1°F10.6°C 46.4°F8.0°C 84% 2.3 mph NNW3.7 kmh NNW 4.6 mph7.4 kmh 29.89 in1012.2 mb - 0.00 in0.0 mm 0.43 in10.9 mm
07:00 AM 51.4°F10.8°C 46.7°F8.2°C 84% 3.5 mph N5.6 kmh N 8.1 mph13.0 kmh 29.89 in1012.2 mb - 0.00 in0.0 mm 0.43 in10.9 mm
06:50 AM 51.4°F10.8°C 46.7°F8.2°C 84% 3.5 mph NE5.6 kmh NE 4.6 mph7.4 kmh 29.89 in1012.2 mb - 0.00 in0.0 mm 0.43 in10.9 mm
06:40 AM 51.6°F10.9°C 46.9°F8.3°C 84% 1.2 mph ESE1.9 kmh ESE 2.3 mph3.7 kmh 29.89 in1012.2 mb - 0.00 in0.0 mm 0.43 in10.9 mm
06:30 AM 51.6°F10.9°C 46.6°F8.1°C 83% 1.2 mph E1.9 kmh E 2.3 mph3.7 kmh 29.88 in1011.9 mb - 0.00 in0.0 mm 0.43 in10.9 mm
06:20 AM 51.6°F10.9°C 46.3°F7.9°C 82% Calm Calm -- 29.89 in1012.2 mb - 0.00 in0.0 mm 0.43 in10.9 mm
06:10 AM 51.6°F10.9°C 46.0°F7.8°C 81% 2.3 mph NNW3.7 kmh NNW 8.1 mph13.0 kmh 29.89 in1012.2 mb - 0.00 in0.0 mm 0.43 in10.9 mm
06:00 AM 51.4°F10.8°C 46.1°F7.8°C 82% 9.2 mph NE14.8 kmh NE 10.4 mph16.7 kmh 29.88 in1011.9 mb - 0.00 in0.0 mm 0.43 in10.9 mm
05:50 AM 51.4°F10.8°C 46.1°F7.8°C 82% 8.1 mph NNW13.0 kmh NNW 10.4 mph16.7 kmh 29.88 in1011.9 mb - 0.00 in0.0 mm 0.43 in10.9 mm
05:40 AM 51.4°F10.8°C 46.1°F7.8°C 82% 4.6 mph NNE7.4 kmh NNE 8.1 mph13.0 kmh 29.88 in1011.9 mb - 0.00 in0.0 mm 0.43 in10.9 mm
05:30 AM 51.3°F10.7°C 46.0°F7.8°C 82% 5.8 mph NNW9.3 kmh NNW 10.4 mph16.7 kmh 29.88 in1011.9 mb - 0.00 in0.0 mm 0.43 in10.9 mm
05:20 AM 50.9°F10.5°C 44.9°F7.2°C 80% 17.3 mph N27.8 kmh N 20.7 mph33.3 kmh 29.88 in1011.9 mb - 0.00 in0.0 mm 0.43 in10.9 mm
05:10 AM 50.7°F10.4°C 45.4°F7.4°C 82% 13.8 mph NE22.2 kmh NE 17.3 mph27.8 kmh 29.87 in1011.5 mb - 0.00 in0.0 mm 0.43 in10.9 mm
05:00 AM 50.7°F10.4°C 46.4°F8.0°C 85% 12.7 mph NNE20.4 kmh NNE 15.0 mph24.1 kmh 29.88 in1011.9 mb - 0.00 in0.0 mm 0.43 in10.9 mm
04:50 AM 50.7°F10.4°C 46.4°F8.0°C 85% 3.5 mph NNE5.6 kmh NNE 4.6 mph7.4 kmh 29.87 in1011.5 mb - 0.00 in0.0 mm 0.43 in10.9 mm
04:40 AM 50.5°F10.3°C 45.8°F7.7°C 84% 3.5 mph NNE5.6 kmh NNE 8.1 mph13.0 kmh 29.87 in1011.5 mb - 0.00 in0.0 mm 0.43 in10.9 mm
04:30 AM 50.5°F10.3°C 46.5°F8.1°C 86% 3.5 mph NNE5.6 kmh NNE 10.4 mph16.7 kmh 29.87 in1011.5 mb - 0.00 in0.0 mm 0.43 in10.9 mm
04:20 AM 50.4°F10.2°C 47.6°F8.7°C 90% Calm Calm 2.3 mph3.7 kmh 29.87 in1011.5 mb - 0.00 in0.0 mm 0.43 in10.9 mm
04:10 AM 50.4°F10.2°C 48.2°F9.0°C 92% 4.6 mph NNW7.4 kmh NNW 8.1 mph13.0 kmh 29.86 in1011.2 mb - 0.00 in0.0 mm 0.43 in10.9 mm
04:00 AM 50.4°F10.2°C 48.2°F9.0°C 92% 3.5 mph NW5.6 kmh NW 8.1 mph13.0 kmh 29.87 in1011.5 mb - 0.00 in0.0 mm 0.43 in10.9 mm
03:50 AM 50.4°F10.2°C 48.5°F9.2°C 93% 5.8 mph NW9.3 kmh NW 8.1 mph13.0 kmh 29.87 in1011.5 mb - 0.00 in0.0 mm 0.43 in10.9 mm
03:40 AM 50.2°F10.1°C 48.3°F9.1°C 93% Calm Calm -- 29.86 in1011.2 mb - 0.00 in0.0 mm 0.43 in10.9 mm
03:30 AM 49.8°F9.9°C 47.9°F8.8°C 93% Calm Calm 2.3 mph3.7 kmh 29.86 in1011.2 mb - 0.00 in0.0 mm 0.43 in10.9 mm
03:20 AM 49.3°F9.6°C 47.4°F8.6°C 93% 2.3 mph W3.7 kmh W 4.6 mph7.4 kmh 29.87 in1011.5 mb - 0.00 in0.0 mm 0.43 in10.9 mm
03:10 AM 48.7°F9.3°C 47.1°F8.4°C 94% 3.5 mph WNW5.6 kmh WNW 8.1 mph13.0 kmh 29.87 in1011.5 mb - 0.00 in0.0 mm 0.43 in10.9 mm
03:00 AM 48.2°F9.0°C 46.6°F8.1°C 94% 2.3 mph SW3.7 kmh SW 4.6 mph7.4 kmh 29.88 in1011.9 mb - 0.00 in0.0 mm 0.43 in10.9 mm
02:50 AM 47.8°F8.8°C 45.9°F7.7°C 93% Calm Calm -- 29.88 in1011.9 mb - 0.03 in0.8 mm 0.43 in10.9 mm
02:40 AM 47.7°F8.7°C 46.1°F7.8°C 94% 6.9 mph W11.1 kmh W 8.1 mph13.0 kmh 29.88 in1011.9 mb - 0.10 in2.5 mm 0.43 in10.9 mm
02:30 AM 47.7°F8.7°C 46.1°F7.8°C 94% Calm Calm -- 29.89 in1012.2 mb - 0.16 in4.1 mm 0.43 in10.9 mm
02:20 AM 47.8°F8.8°C 46.4°F8.0°C 95% 2.3 mph E3.7 kmh E 4.6 mph7.4 kmh 29.88 in1011.9 mb - 0.24 in6.1 mm 0.43 in10.9 mm
02:10 AM 48.2°F9.0°C 46.8°F8.2°C 95% 9.2 mph E14.8 kmh E 15.0 mph24.1 kmh 29.89 in1012.2 mb - 0.31 in7.9 mm 0.43 in10.9 mm
02:00 AM 48.8°F9.3°C 47.4°F8.6°C 95% 9.2 mph ESE14.8 kmh ESE 15.0 mph24.1 kmh 29.89 in1012.2 mb - 0.36 in9.1 mm 0.43 in10.9 mm
01:50 AM 49.6°F9.8°C 48.2°F9.0°C 95% 5.8 mph E9.3 kmh E 10.4 mph16.7 kmh 29.93 in1013.5 mb - 0.37 in9.4 mm 0.41 in10.4 mm
01:40 AM 50.4°F10.2°C 48.7°F9.3°C 94% 4.6 mph NE7.4 kmh NE 8.1 mph13.0 kmh 29.96 in1014.6 mb - 0.31 in7.9 mm 0.33 in8.4 mm
01:30 AM 50.5°F10.3°C 48.8°F9.3°C 94% 1.2 mph NW1.9 kmh NW 4.6 mph7.4 kmh 29.96 in1014.6 mb - 0.26 in6.6 mm 0.27 in6.9 mm
01:20 AM 50.5°F10.3°C 48.8°F9.3°C 94% 6.9 mph NW11.1 kmh NW 10.4 mph16.7 kmh 29.96 in1014.6 mb - 0.19 in4.8 mm 0.20 in5.1 mm
01:10 AM 50.9°F10.5°C 48.9°F9.4°C 93% 2.3 mph WNW3.7 kmh WNW 4.6 mph7.4 kmh 29.96 in1014.6 mb - 0.12 in3.0 mm 0.12 in3.0 mm
01:00 AM 51.1°F10.6°C 48.9°F9.4°C 92% 6.9 mph WNW11.1 kmh WNW 10.4 mph16.7 kmh 29.97 in1014.9 mb - 0.08 in2.0 mm 0.08 in2.0 mm
12:50 AM 51.1°F10.6°C 48.0°F8.9°C 89% 2.3 mph NW3.7 kmh NW 4.6 mph7.4 kmh 29.96 in1014.6 mb - 0.04 in1.0 mm 0.04 in1.0 mm
12:40 AM 50.9°F10.5°C 47.2°F8.4°C 87% 1.2 mph SW1.9 kmh SW 2.3 mph3.7 kmh 29.95 in1014.2 mb - 0.02 in0.5 mm 0.02 in0.5 mm
12:30 AM 50.5°F10.3°C 46.5°F8.1°C 86% 1.2 mph W1.9 kmh W 2.3 mph3.7 kmh 29.94 in1013.9 mb - 0.01 in0.3 mm 0.01 in0.3 mm
12:20 AM 50.2°F10.1°C 46.2°F7.9°C 86% Calm Calm -- 29.93 in1013.5 mb - 0.05 in1.3 mm 0.01 in0.3 mm
12:10 AM 49.7°F9.8°C 45.7°F7.6°C 86% 1.2 mph WSW1.9 kmh WSW 2.3 mph3.7 kmh 29.93 in1013.5 mb - 0.04 in1.0 mm 0.08 in2.0 mm
12:00 AM 49.3°F9.6°C 45.3°F7.4°C 86% 1.2 mph SW1.9 kmh SW 2.3 mph3.7 kmh 29.93 in1013.5 mb - 0.04 in1.0 mm 0.04 in1.0 mm